»·PEaware :: N54JA KLGB-KSBA

N54JA :: KLGB-KSBA

FLIGHT INFORMATION

Flight Status: Arrived
Operator: Privately registered:
United States
More flights under this callsign
Pilot: Kevin S. (26378)
Aircraft: CESSNA 172 SKYHAWK
(C172)
More flights by this aircraft type
Origin: KLGB Long Beach
United States
Destination: KSBA Santa Barbara Mun
United States
More flights between these airports :: More routes between these airports
Route:
File this flight plan on PilotEdge
Remarks:
Altitude:
(Current/Filed)
6,500ft
Speed:
(Current/Filed)
110kts
Departed: 16-Nov-19 12:14 PM
Arrived: 16-Nov-19 01:33 PM
Distance/Time
Traveled:
91nm/1:19
Distance/Time
To Go:
Arrived

Flight Plot

Page will automatically refresh every two minutes.


Map Options




Map Legend


Flown Route
Filed Route
Departure Airport
Arrival Airport
Navaid (VOR, NDB)
Fix

Horizontal Profiles

Position Reports

Time Latitude Longitude Heading Altitude Ground
Speed
16-Nov-19 11:53 33.812300 -118.151852 319 40ft 0kts
16-Nov-19 11:54 33.812300 -118.151852 319 40ft 0kts
16-Nov-19 11:55 33.812300 -118.151852 319 40ft 0kts
16-Nov-19 11:56 33.812300 -118.151852 319 40ft 0kts
16-Nov-19 11:57 33.812300 -118.151852 319 40ft 0kts
16-Nov-19 11:58 33.812300 -118.151852 319 40ft 0kts
16-Nov-19 11:59 33.812300 -118.151852 319 40ft 0kts
16-Nov-19 12:00 33.812300 -118.151852 319 40ft 0kts
16-Nov-19 12:01 33.812300 -118.151852 319 40ft 0kts
16-Nov-19 12:02 33.812300 -118.151852 319 40ft 0kts
16-Nov-19 12:03 33.812300 -118.151852 319 40ft 0kts
16-Nov-19 12:04 33.812300 -118.151852 319 40ft 0kts
16-Nov-19 12:05 33.812300 -118.151852 319 40ft 0kts
16-Nov-19 12:06 33.812831 -118.151968 20 40ft 0kts
16-Nov-19 12:07 33.813079 -118.148996 85 37ft 2kts
16-Nov-19 12:08 33.813092 -118.148704 87 37ft 0kts
16-Nov-19 12:09 33.813128 -118.148718 289 37ft 0kts
16-Nov-19 12:10 33.813168 -118.148294 43 37ft 0kts
16-Nov-19 12:11 33.813293 -118.148197 2 36ft 0kts
16-Nov-19 12:12 33.813297 -118.148196 3 36ft 0kts
16-Nov-19 12:13 33.813753 -118.150994 272 40ft 56kts
16-Nov-19 12:14 33.814027 -118.177773 265 753ft 91kts
16-Nov-19 12:15 33.814963 -118.208166 269 1655ft 92kts
16-Nov-19 12:16 33.812627 -118.239074 251 2441ft 94kts
16-Nov-19 12:17 33.809737 -118.272149 269 3075ft 96kts
16-Nov-19 12:18 33.811038 -118.303893 270 3792ft 98kts
16-Nov-19 12:19 33.812803 -118.335195 267 4453ft 96kts
16-Nov-19 12:20 33.809368 -118.368566 267 4490ft 106kts
16-Nov-19 12:21 33.806125 -118.402519 269 4543ft 101kts
16-Nov-19 12:22 33.804305 -118.436170 276 5118ft 96kts
16-Nov-19 12:23 33.803324 -118.467794 208 5607ft 109kts
16-Nov-19 12:24 33.785426 -118.442976 148 4424ft 113kts
16-Nov-19 12:25 33.760442 -118.421314 132 4316ft 110kts
16-Nov-19 12:26 33.739352 -118.392922 118 4490ft 113kts
16-Nov-19 12:27 33.727102 -118.360060 57 4971ft 104kts
16-Nov-19 12:28 33.747712 -118.338824 23 5148ft 129kts
16-Nov-19 12:29 33.768504 -118.318032 78 4320ft 106kts
16-Nov-19 12:30 33.769642 -118.282276 96 4165ft 112kts
16-Nov-19 12:31 33.743542 -118.262386 156 4406ft 116kts
16-Nov-19 12:32 33.719784 -118.238625 139 5023ft 111kts
16-Nov-19 12:33 33.696451 -118.216845 133 5722ft 100kts
16-Nov-19 12:34 33.712450 -118.207895 315 6279ft 112kts
16-Nov-19 12:35 33.734229 -118.237675 312 6509ft 119kts
16-Nov-19 12:36 33.759717 -118.260169 340 6423ft 118kts
16-Nov-19 12:37 33.787518 -118.277740 322 6487ft 119kts
16-Nov-19 12:38 33.811429 -118.300887 316 6567ft 101kts
16-Nov-19 12:39 33.832129 -118.324703 320 6526ft 106kts
16-Nov-19 12:40 33.854499 -118.347872 327 6475ft 106kts
16-Nov-19 12:41 33.876424 -118.370445 324 6397ft 104kts
16-Nov-19 12:42 33.896572 -118.394710 317 6461ft 105kts
16-Nov-19 12:43 33.917820 -118.414661 308 6490ft 109kts
16-Nov-19 12:44 33.938772 -118.439319 339 6504ft 104kts
16-Nov-19 12:45 33.965921 -118.449458 333 6466ft 108kts
16-Nov-19 12:46 33.994288 -118.466431 339 6549ft 114kts
16-Nov-19 12:47 34.023101 -118.483131 345 6493ft 115kts
16-Nov-19 12:48 34.052472 -118.498946 342 6472ft 115kts
16-Nov-19 12:49 34.083352 -118.508646 342 6462ft 114kts
16-Nov-19 12:50 34.111777 -118.526921 316 6587ft 118kts
16-Nov-19 12:51 34.124258 -118.564053 281 7036ft 120kts
16-Nov-19 12:52 34.129655 -118.604286 289 7450ft 121kts
16-Nov-19 12:53 34.147374 -118.638491 295 7842ft 121kts
16-Nov-19 12:54 34.158332 -118.676399 281 8188ft 124kts
16-Nov-19 12:55 34.165360 -118.715701 284 8484ft 121kts
16-Nov-19 12:56 34.175422 -118.754668 295 8552ft 122kts
16-Nov-19 12:57 34.187141 -118.792542 295 8542ft 121kts
16-Nov-19 12:58 34.197884 -118.831727 296 8547ft 123kts
16-Nov-19 12:59 34.212215 -118.869118 297 8568ft 123kts
16-Nov-19 13:00 34.224105 -118.908563 295 8607ft 123kts
16-Nov-19 13:01 34.233818 -118.948515 292 8515ft 124kts
16-Nov-19 13:02 34.247090 -118.986413 301 8564ft 120kts
16-Nov-19 13:03 34.259206 -119.024318 295 8605ft 121kts
16-Nov-19 13:04 34.269705 -119.063387 294 8584ft 121kts
16-Nov-19 13:05 34.279807 -119.102629 296 8532ft 120kts
16-Nov-19 13:06 34.287316 -119.142747 287 8485ft 122kts
16-Nov-19 13:07 34.296521 -119.182032 296 8443ft 119kts
16-Nov-19 13:08 34.310122 -119.218283 296 8567ft 117kts
16-Nov-19 13:09 34.318743 -119.258067 287 8670ft 133kts
16-Nov-19 13:10 34.330111 -119.301322 296 8559ft 129kts
16-Nov-19 13:11 34.338531 -119.344043 276 8541ft 135kts
16-Nov-19 13:12 34.342939 -119.388569 292 8528ft 131kts
16-Nov-19 13:13 34.353077 -119.431021 292 8522ft 131kts
16-Nov-19 13:15 34.365318 -119.472311 298 8558ft 127kts
16-Nov-19 13:16 34.379795 -119.512134 301 8558ft 129kts
16-Nov-19 13:17 34.393914 -119.551926 297 8597ft 129kts
16-Nov-19 13:18 34.406073 -119.593854 282 8495ft 137kts
16-Nov-19 13:19 34.409510 -119.641818 277 8059ft 143kts
16-Nov-19 13:20 34.414077 -119.688771 282 6606ft 135kts
16-Nov-19 13:21 34.416777 -119.732049 272 5081ft 130kts
16-Nov-19 13:22 34.427175 -119.769286 300 4079ft 111kts
16-Nov-19 13:23 34.437147 -119.798093 292 3820ft 101kts
16-Nov-19 13:24 34.443480 -119.830467 264 2651ft 101kts
16-Nov-19 13:25 34.426780 -119.856747 197 1607ft 94kts
16-Nov-19 13:26 34.427826 -119.873381 349 1257ft 86kts
16-Nov-19 13:27 34.448019 -119.859866 77 1247ft 101kts
16-Nov-19 13:28 34.437503 -119.842489 144 819ft 73kts
16-Nov-19 13:29 34.411355 -119.834608 171 703ft 109kts
16-Nov-19 13:30 34.404994 -119.853705 344 1088ft 108kts
16-Nov-19 13:31 34.431811 -119.856710 349 1017ft 84kts
16-Nov-19 13:31 34.445278 -119.849655 103 1048ft 76kts
16-Nov-19 13:33 34.425365 -119.839909 166 14ft 11kts

Navigation Log

Ident Type
Flight plan parsing failed, navigation log unavailable